»·PEaware :: N899M KLAS-KSAN

N899M :: KLAS-KSAN

FLIGHT INFORMATION

Flight Status: Arrived
Operator: Privately registered:
United States
More flights under this callsign
Pilot: Robert C. (30425)
Aircraft: Unknown
(EPIC)
More flights by this aircraft type
Origin: KLAS McCarran Intl
United States
Destination: KSAN San Diego Intl-Lindbergh
United States
More flights between these airports :: More routes between these airports
Route: +GFS V514 TNP V514 MZB
File this flight plan on PilotEdge
Remarks:
Altitude:
(Current/Filed)
12,000ft
Speed:
(Current/Filed)
300kts
Departed: 14-Oct-20 08:10 PM
Arrived: 14-Oct-20 09:06 PM
Distance/Time
Traveled:
224nm/0:56
Distance/Time
To Go:
Arrived

Flight Plot

Page will automatically refresh every two minutes.

Flight plan parsing failed; only flown route is shown


Map Options




Map Legend


Flown Route
Filed Route
Departure Airport
Arrival Airport
Navaid (VOR, NDB)
Fix

Horizontal Profiles

Position Reports

Time Latitude Longitude Heading Altitude Ground
Speed
14-Oct-20 19:50 36.097196 -115.161300 293 2102ft 0kts
14-Oct-20 19:51 36.097196 -115.161300 293 2102ft 0kts
14-Oct-20 19:52 36.097196 -115.161300 293 2102ft 0kts
14-Oct-20 19:53 36.097196 -115.161300 293 2102ft 0kts
14-Oct-20 19:54 36.097196 -115.161300 293 2102ft 0kts
14-Oct-20 19:55 36.097196 -115.161300 293 2102ft 0kts
14-Oct-20 19:56 36.097196 -115.161300 293 2102ft 0kts
14-Oct-20 19:57 36.097196 -115.161300 293 2102ft 0kts
14-Oct-20 19:58 36.097196 -115.161300 293 2102ft 0kts
14-Oct-20 19:59 36.097196 -115.161300 293 2102ft 0kts
14-Oct-20 20:00 36.097196 -115.161300 293 2102ft 0kts
14-Oct-20 20:01 36.097196 -115.161300 293 2102ft 0kts
14-Oct-20 20:02 36.097196 -115.161300 293 2102ft 0kts
14-Oct-20 20:03 36.097196 -115.161300 293 2102ft 0kts
14-Oct-20 20:04 36.097583 -115.161232 36 2101ft 0kts
14-Oct-20 20:05 36.098057 -115.159986 63 2096ft 9kts
14-Oct-20 20:06 36.099812 -115.157640 91 2085ft 0kts
14-Oct-20 20:07 36.099812 -115.157640 91 2085ft 0kts
14-Oct-20 20:08 36.098990 -115.156778 201 2084ft 18kts
14-Oct-20 20:09 36.065288 -115.175860 201 2853ft 206kts
14-Oct-20 20:10 36.004208 -115.208022 201 4127ft 260kts
14-Oct-20 20:11 35.935376 -115.244417 201 5514ft 273kts
14-Oct-20 20:12 35.864625 -115.282295 201 7018ft 281kts
14-Oct-20 20:13 35.792175 -115.320986 201 8521ft 287kts
14-Oct-20 20:14 35.717850 -115.359771 201 10022ft 294kts
14-Oct-20 20:15 35.641567 -115.397394 201 11519ft 299kts
14-Oct-20 20:16 35.560896 -115.435467 201 12037ft 321kts
14-Oct-20 20:17 35.477593 -115.474554 201 12036ft 320kts
14-Oct-20 20:18 35.394353 -115.486806 139 12104ft 312kts
14-Oct-20 20:19 35.332792 -115.412504 135 12119ft 314kts
14-Oct-20 20:20 35.269649 -115.338640 134 12094ft 315kts
14-Oct-20 20:22 35.206286 -115.264305 134 12039ft 313kts
14-Oct-20 20:23 35.142280 -115.193129 154 11976ft 314kts
14-Oct-20 20:24 35.057826 -115.209023 199 11999ft 313kts
14-Oct-20 20:25 34.975791 -115.245070 200 12001ft 312kts
14-Oct-20 20:26 34.894326 -115.280976 200 12000ft 310kts
14-Oct-20 20:27 34.813868 -115.316360 200 11999ft 307kts
14-Oct-20 20:28 34.733481 -115.351642 200 11999ft 306kts
14-Oct-20 20:29 34.653445 -115.386697 200 12037ft 305kts
14-Oct-20 20:30 34.573560 -115.421612 200 11998ft 308kts
14-Oct-20 20:31 34.493156 -115.456686 200 11981ft 306kts
14-Oct-20 20:32 34.413006 -115.491576 200 11981ft 306kts
14-Oct-20 20:33 34.332989 -115.526450 204 11974ft 306kts
14-Oct-20 20:34 34.268991 -115.593594 223 11981ft 304kts
14-Oct-20 20:35 34.206952 -115.663438 223 11981ft 305kts
14-Oct-20 20:36 34.144969 -115.733095 223 11982ft 305kts
14-Oct-20 20:37 34.078697 -115.796957 214 11982ft 305kts
14-Oct-20 20:38 34.007959 -115.854331 214 11904ft 307kts
14-Oct-20 20:39 33.936977 -115.911705 214 11815ft 307kts
14-Oct-20 20:40 33.866286 -115.968764 214 11878ft 302kts
14-Oct-20 20:40 33.808138 -116.015636 214 11926ft 302kts
14-Oct-20 20:41 33.737859 -116.072128 214 11926ft 304kts
14-Oct-20 20:42 33.667751 -116.128366 214 11926ft 304kts
14-Oct-20 20:43 33.598283 -116.186337 216 11926ft 304kts
14-Oct-20 20:44 33.530164 -116.246093 216 11926ft 304kts
14-Oct-20 20:45 33.461823 -116.305939 216 11926ft 304kts
14-Oct-20 20:46 33.393312 -116.365815 216 11926ft 304kts
14-Oct-20 20:47 33.325101 -116.425323 216 11934ft 304kts
14-Oct-20 20:48 33.256905 -116.484717 216 11975ft 303kts
14-Oct-20 20:49 33.188860 -116.543864 216 12026ft 300kts
14-Oct-20 20:50 33.116244 -116.587475 187 12058ft 297kts
14-Oct-20 20:51 33.032805 -116.597068 185 11172ft 299kts
14-Oct-20 20:52 32.953162 -116.605335 185 9854ft 278kts
14-Oct-20 20:53 32.877319 -116.613188 185 8544ft 270kts
14-Oct-20 20:54 32.805353 -116.620634 185 7979ft 241kts
14-Oct-20 20:55 32.774299 -116.674296 270 7983ft 211kts
14-Oct-20 20:56 32.760646 -116.737745 239 7953ft 193kts
14-Oct-20 20:57 32.733267 -116.791607 239 7290ft 192kts
14-Oct-20 20:58 32.703262 -116.850477 239 5616ft 218kts
14-Oct-20 20:59 32.673623 -116.909414 249 4960ft 188kts
14-Oct-20 21:00 32.678734 -116.965326 285 4976ft 168kts
14-Oct-20 21:01 32.692406 -117.020724 285 4213ft 196kts
14-Oct-20 21:02 32.706806 -117.079669 284 2367ft 169kts
14-Oct-20 21:03 32.718025 -117.125741 283 1021ft 111kts
14-Oct-20 21:04 32.726421 -117.160656 284 597ft 111kts
14-Oct-20 21:05 32.732959 -117.187073 287 20ft 34kts
14-Oct-20 21:06 32.734171 -117.187393 97 20ft 12kts
14-Oct-20 21:07 32.732739 -117.181527 107 20ft 17kts
14-Oct-20 21:08 32.732468 -117.177652 113 20ft 0kts
14-Oct-20 21:09 32.732468 -117.177652 113 20ft 0kts
14-Oct-20 21:10 32.732468 -117.177652 113 20ft 0kts
14-Oct-20 21:11 32.732468 -117.177652 113 20ft 0kts
14-Oct-20 21:12 32.732468 -117.177652 113 20ft 0kts
14-Oct-20 21:13 32.732468 -117.177652 113 20ft 0kts
14-Oct-20 21:14 32.732468 -117.177652 113 20ft 0kts
14-Oct-20 21:15 32.732468 -117.177652 113 20ft 0kts
14-Oct-20 21:16 32.732468 -117.177652 113 20ft 0kts
14-Oct-20 21:17 32.732468 -117.177652 113 20ft 0kts
14-Oct-20 21:18 32.732468 -117.177652 113 20ft 0kts
14-Oct-20 21:19 32.732468 -117.177652 113 20ft 0kts

Navigation Log

Ident Type
Flight plan parsing failed, navigation log unavailable